Time;durP1;ratioP1;P1;durP2;ratioP2;P2;SDS_P1;SDS_P2;PMS_P1;PMS_P2;Temp;Humidity;BMP_temperature;BMP_pressure;BME280_temperature;BME280_humidity;BME280_pressure;Samples;Min_cycle;Max_cycle;Signal;HPM_P1;HPM_P2
2023/03/12 00:01:58;;;;;;;6.03;1.90;;;;;;;0.58;71.72;101249.38;7392422;19;19998;-59
2023/03/12 00:04:24;;;;;;;6.68;2.22;;;;;;;0.60;71.98;101258.06;7389885;19;20002;-60
2023/03/12 00:06:50;;;;;;;5.55;1.90;;;;;;;0.68;71.88;101249.03;7390526;19;19999;-60
2023/03/12 00:09:16;;;;;;;14.43;2.67;;;;;;;0.62;71.50;101253.63;7392382;19;19995;-60
2023/03/12 00:11:42;;;;;;;6.68;2.22;;;;;;;0.52;71.87;101257.41;7391828;19;20001;-58
2023/03/12 00:14:07;;;;;;;8.00;2.05;;;;;;;0.49;72.18;101254.94;7391710;19;19995;-59
2023/03/12 00:16:33;;;;;;;7.15;2.20;;;;;;;0.46;72.02;101250.66;7385597;19;20015;-51
2023/03/12 00:19:00;;;;;;;9.13;2.30;;;;;;;0.45;72.09;101256.78;7388814;19;20343;-51
2023/03/12 00:21:26;;;;;;;5.50;2.08;;;;;;;0.38;71.92;101255.25;7391839;19;19999;-52
2023/03/12 00:23:52;;;;;;;5.68;2.30;;;;;;;0.33;72.44;101255.41;7391462;19;20001;-50
2023/03/12 00:26:19;;;;;;;8.07;2.60;;;;;;;0.37;72.03;101256.19;7390406;19;20462;-51
2023/03/12 00:28:47;;;;;;;8.30;2.80;;;;;;;0.33;72.44;101247.56;7391037;19;20037;-51
2023/03/12 00:31:22;;;;;;;4.63;2.10;;;;;;;0.34;72.10;101251.03;7391883;19;19999;-49
2023/03/12 00:33:49;;;;;;;6.93;2.58;;;;;;;0.20;72.51;101246.22;7390236;19;20006;-50
2023/03/12 00:36:15;;;;;;;11.48;3.15;;;;;;;0.19;72.79;101242.78;7390747;19;19999;-51
2023/03/12 00:38:41;;;;;;;6.45;2.47;;;;;;;0.26;72.61;101240.84;7390387;19;20315;-49
2023/03/12 00:41:07;;;;;;;6.47;2.35;;;;;;;0.16;72.76;101245.47;7391484;19;20496;-50
2023/03/12 00:43:33;;;;;;;9.93;3.08;;;;;;;0.09;73.31;101248.31;7392546;19;20002;-50
2023/03/12 00:45:59;;;;;;;7.68;2.40;;;;;;;0.26;72.68;101242.59;7390256;19;20005;-49
2023/03/12 00:48:24;;;;;;;6.70;2.30;;;;;;;0.21;72.58;101250.56;7389028;19;19998;-51
2023/03/12 00:50:50;;;;;;;7.95;2.58;;;;;;;0.18;72.77;101243.69;7393847;19;20002;-52
2023/03/12 00:53:15;;;;;;;7.25;2.70;;;;;;;0.24;72.66;101247.84;7391513;19;20001;-53
2023/03/12 00:55:41;;;;;;;9.30;2.40;;;;;;;0.26;72.40;101246.06;7390012;19;19993;-53
2023/03/12 00:58:06;;;;;;;7.95;2.58;;;;;;;0.17;72.85;101243.72;7389345;19;20009;-53
2023/03/12 01:00:32;;;;;;;7.78;2.50;;;;;;;0.03;73.16;101240.69;7391121;19;20575;-54
2023/03/12 01:02:58;;;;;;;7.10;2.20;;;;;;;0.02;73.39;101242.41;7389238;19;20050;-53
2023/03/12 01:05:23;;;;;;;9.68;2.30;;;;;;;-0.00;73.54;101246.00;7390443;19;20466;-51
2023/03/12 01:07:49;;;;;;;7.63;2.63;;;;;;;0.06;73.28;101237.97;7391425;19;19994;-53
2023/03/12 01:10:16;;;;;;;8.80;2.38;;;;;;;0.10;73.13;101239.56;7390769;19;20012;-50
2023/03/12 01:12:41;;;;;;;9.32;2.50;;;;;;;0.11;73.05;101236.94;7390711;19;20002;-52
2023/03/12 01:15:08;;;;;;;6.57;2.35;;;;;;;0.22;72.81;101238.38;7390264;19;19999;-51
2023/03/12 01:17:34;;;;;;;9.02;2.65;;;;;;;0.18;72.74;101241.06;7386763;19;20010;-53
2023/03/12 01:19:59;;;;;;;7.65;2.15;;;;;;;0.10;72.73;101240.47;7391458;19;19995;-49
2023/03/12 01:22:25;;;;;;;7.13;2.15;;;;;;;0.00;73.30;101241.63;7390222;19;19998;-49
2023/03/12 01:24:50;;;;;;;7.55;2.35;;;;;;;-0.12;73.92;101247.22;7389876;19;20329;-52
2023/03/12 01:27:15;;;;;;;8.50;2.70;;;;;;;-0.04;73.95;101247.84;7388876;19;20023;-53
2023/03/12 01:29:41;;;;;;;6.13;2.33;;;;;;;-0.06;73.57;101245.25;7390182;19;20006;-54
2023/03/12 01:32:06;;;;;;;7.30;2.40;;;;;;;-0.05;73.57;101246.16;7390069;19;20002;-54
2023/03/12 01:34:34;;;;;;;9.85;2.53;;;;;;;-0.03;73.40;101241.72;7388872;19;20009;-54
2023/03/12 01:37:00;;;;;;;10.40;2.85;;;;;;;0.06;72.89;101243.19;7388622;19;20036;-54
2023/03/12 01:39:26;;;;;;;8.32;2.50;;;;;;;-0.12;73.64;101245.47;7389011;19;20463;-52
2023/03/12 01:41:51;;;;;;;8.05;2.58;;;;;;;-0.13;73.76;101237.66;7388162;19;20483;-53
2023/03/12 01:44:17;;;;;;;6.53;2.47;;;;;;;-0.21;74.54;101239.66;7389795;19;19998;-53
2023/03/12 01:46:44;;;;;;;11.32;2.78;;;;;;;-0.19;74.30;101235.25;7388582;19;20013;-49
2023/03/12 01:49:24;;;;;;;9.93;2.60;;;;;;;-0.15;74.13;101237.72;7389420;19;20486;-49
2023/03/12 01:52:09;;;;;;;5.88;2.60;;;;;;;-0.10;73.79;101235.81;7389041;19;20462;-50
2023/03/12 01:54:49;;;;;;;7.38;2.42;;;;;;;-0.33;74.40;101238.25;7389525;19;20010;-49
2023/03/12 01:57:19;;;;;;;6.15;2.53;;;;;;;-0.62;75.69;101234.75;7388263;19;20007;-50
2023/03/12 01:59:53;;;;;;;7.25;2.70;;;;;;;-0.60;76.11;101237.28;7391425;19;20003;-52
2023/03/12 02:02:25;;;;;;;5.35;2.60;;;;;;;-0.71;76.59;101234.97;7396996;19;20474;-57
2023/03/12 02:04:58;;;;;;;6.43;2.53;;;;;;;-0.64;76.20;101230.44;7393588;19;20002;-54
2023/03/12 02:07:24;;;;;;;7.20;2.67;;;;;;;-0.43;75.51;101231.63;7394554;19;20006;-53
2023/03/12 02:09:50;;;;;;;6.18;2.45;;;;;;;-0.47;75.39;101228.22;7394043;19;20352;-53
2023/03/12 02:12:16;;;;;;;6.38;2.92;;;;;;;-0.62;75.70;101229.53;7394720;19;20020;-53
2023/03/12 02:14:42;;;;;;;5.30;2.50;;;;;;;-0.81;76.54;101225.72;7394476;19;20030;-54
2023/03/12 02:17:09;;;;;;;6.18;2.88;;;;;;;-0.91;77.31;101232.91;7392128;19;20011;-50
2023/03/12 02:19:50;;;;;;;6.70;2.60;;;;;;;-0.88;77.29;101230.22;7394794;19;20007;-54
2023/03/12 02:22:17;;;;;;;5.70;2.80;;;;;;;-0.91;77.34;101221.63;7396239;19;20466;-54
2023/03/12 02:25:13;;;;;;;8.45;2.95;;;;;;;-0.68;76.27;101218.38;7394355;19;20300;-53
2023/03/12 02:27:39;;;;;;;11.45;3.33;;;;;;;-0.73;75.99;101221.13;7392065;19;20481;-53
2023/03/12 02:30:05;;;;;;;8.32;3.30;;;;;;;-0.86;76.57;101219.75;7396181;19;20005;-53
2023/03/12 02:32:38;;;;;;;8.45;3.00;;;;;;;-0.95;77.27;101218.25;7395796;19;20347;-54
2023/03/12 02:35:05;;;;;;;6.82;2.38;;;;;;;-1.03;77.41;101215.84;7394799;19;20018;-52
2023/03/12 02:37:31;;;;;;;6.72;2.60;;;;;;;-1.08;77.61;101217.72;7392262;19;20006;-50
2023/03/12 02:40:04;;;;;;;9.02;2.97;;;;;;;-1.06;77.61;101215.06;7395522;19;20006;-54
2023/03/12 02:42:30;;;;;;;6.07;2.97;;;;;;;-1.05;77.66;101207.22;7395720;19;19998;-53
2023/03/12 02:44:57;;;;;;;7.05;2.70;;;;;;;-1.08;77.53;101214.28;7395846;19;20002;-53
2023/03/12 02:47:23;;;;;;;6.90;3.00;;;;;;;-0.96;77.33;101213.94;7393553;19;20062;-54
2023/03/12 02:49:48;;;;;;;10.15;2.55;;;;;;;-0.94;77.03;101211.28;7395286;19;20334;-53
2023/03/12 02:52:13;;;;;;;8.45;2.80;;;;;;;-1.05;77.15;101216.78;7395669;19;20527;-54
2023/03/12 02:54:40;;;;;;;6.35;2.67;;;;;;;-1.09;77.34;101212.53;7395103;19;20477;-55
2023/03/12 02:57:06;;;;;;;6.28;2.75;;;;;;;-1.05;77.14;101206.34;7393952;19;19995;-55
2023/03/12 02:59:31;;;;;;;8.35;2.78;;;;;;;-1.12;77.32;101210.88;7393153;19;20017;-53
2023/03/12 03:01:58;;;;;;;8.38;2.80;;;;;;;-1.23;77.69;101204.25;7393245;19;20010;-54
2023/03/12 03:04:25;;;;;;;7.80;2.88;;;;;;;-1.31;78.17;101213.13;7394445;19;20003;-53
2023/03/12 03:06:51;;;;;;;8.68;3.22;;;;;;;-1.33;78.46;101214.88;7393081;19;20039;-54
2023/03/12 03:09:16;;;;;;;7.15;3.05;;;;;;;-1.14;77.41;101207.44;7394880;19;20450;-53
2023/03/12 03:11:42;;;;;;;12.32;3.22;;;;;;;-1.18;77.55;101212.78;7393295;19;20481;-51
2023/03/12 03:14:08;;;;;;;6.93;3.40;;;;;;;-1.05;77.32;101208.94;7394820;19;19994;-55
2023/03/12 03:16:35;;;;;;;8.85;3.42;;;;;;;-0.86;76.68;101204.94;7393148;19;20033;-54
2023/03/12 03:19:00;;;;;;;11.13;3.90;;;;;;;-1.00;76.68;101207.09;7390834;19;20020;-54
2023/03/12 03:21:26;;;;;;;8.80;3.85;;;;;;;-1.10;77.00;101210.84;7394471;19;20016;-53
2023/03/12 03:23:51;;;;;;;9.25;3.47;;;;;;;-0.99;76.90;101208.78;7394137;19;19998;-52
2023/03/12 03:26:19;;;;;;;7.85;3.00;;;;;;;-0.82;76.35;101208.31;7393013;19;20005;-50
2023/03/12 03:28:45;;;;;;;8.90;3.00;;;;;;;-0.79;76.06;101205.63;7393937;19;20089;-53
2023/03/12 03:31:11;;;;;;;8.77;3.20;;;;;;;-0.98;76.77;101205.28;7394018;19;20466;-54
2023/03/12 03:33:38;;;;;;;6.85;2.90;;;;;;;-0.93;77.07;101200.81;7393969;19;20006;-54
2023/03/12 03:36:05;;;;;;;7.80;3.42;;;;;;;-0.85;76.64;101201.47;7393345;19;20002;-54
2023/03/12 03:38:32;;;;;;;6.53;2.70;;;;;;;-0.81;76.43;101204.84;7393691;19;20002;-55
2023/03/12 03:40:58;;;;;;;9.23;3.10;;;;;;;-0.68;75.62;101203.59;7394520;19;20007;-54
2023/03/12 03:43:30;;;;;;;8.55;3.33;;;;;;;-0.69;75.54;101206.25;7391597;19;20473;-53
2023/03/12 03:46:04;;;;;;;7.72;3.20;;;;;;;-0.56;75.14;101210.22;7392111;19;20014;-54
2023/03/12 03:48:30;;;;;;;6.57;2.55;;;;;;;-0.54;74.61;101211.88;7393261;19;19995;-54
2023/03/12 03:51:00;;;;;;;7.22;2.90;;;;;;;-0.65;74.89;101213.09;7393192;19;20473;-55
2023/03/12 03:53:26;;;;;;;9.07;2.90;;;;;;;-0.48;74.83;101215.22;7394385;19;20062;-54
2023/03/12 03:55:51;;;;;;;6.40;2.90;;;;;;;-0.43;74.09;101213.34;7391332;19;20369;-54
2023/03/12 03:58:17;;;;;;;9.25;2.97;;;;;;;-0.57;74.75;101208.50;7390428;19;19994;-52
2023/03/12 04:00:44;;;;;;;8.55;3.35;;;;;;;-0.50;74.83;101209.19;7390952;19;20491;-52
2023/03/12 04:03:10;;;;;;;5.90;2.80;;;;;;;-0.42;74.62;101204.59;7391548;19;20003;-53
2023/03/12 04:05:35;;;;;;;6.10;2.63;;;;;;;-0.43;74.32;101208.13;7393102;19;20031;-54
2023/03/12 04:08:02;;;;;;;6.60;2.80;;;;;;;-0.37;74.08;101213.16;7392464;19;20375;-54
2023/03/12 04:10:28;;;;;;;9.60;3.40;;;;;;;-0.45;74.33;101208.16;7392783;19;20005;-54
2023/03/12 04:12:54;;;;;;;8.75;3.30;;;;;;;-0.36;74.01;101204.41;7392010;19;20478;-53
2023/03/12 04:15:20;;;;;;;9.60;3.97;;;;;;;-0.38;74.23;101209.69;7390215;19;20066;-53
2023/03/12 04:17:46;;;;;;;8.75;3.45;;;;;;;-0.30;74.24;101204.25;7390050;19;20019;-53
2023/03/12 04:20:12;;;;;;;12.45;3.72;;;;;;;-0.48;74.72;101204.78;7393392;19;20013;-53
2023/03/12 04:22:38;;;;;;;9.40;3.50;;;;;;;-0.61;75.45;101202.53;7390651;19;20002;-52
2023/03/12 04:25:06;;;;;;;9.65;3.63;;;;;;;-0.59;75.57;101199.84;7391597;19;20391;-54
2023/03/12 04:27:31;;;;;;;8.95;3.65;;;;;;;-0.43;74.78;101197.69;7390845;19;20070;-56
2023/03/12 04:29:57;;;;;;;9.93;3.35;;;;;;;-0.35;74.67;101196.56;7390601;19;20002;-55
2023/03/12 04:32:23;;;;;;;11.07;3.40;;;;;;;-0.27;74.11;101187.63;7393388;19;20446;-54
2023/03/12 04:34:48;;;;;;;9.07;3.55;;;;;;;-0.27;73.76;101190.25;7391665;19;20463;-55
2023/03/12 04:37:14;;;;;;;9.68;3.22;;;;;;;-0.33;74.25;101186.91;7390610;19;20407;-53
2023/03/12 04:39:40;;;;;;;7.32;3.40;;;;;;;-0.19;73.27;101183.88;7388672;19;20070;-56
2023/03/12 04:42:07;;;;;;;9.70;3.72;;;;;;;-0.22;73.20;101180.50;7392347;19;19998;-55
2023/03/12 04:44:33;;;;;;;8.90;3.50;;;;;;;-0.35;73.47;101172.22;7391700;19;19999;-55
2023/03/12 04:46:58;;;;;;;9.40;3.72;;;;;;;-0.46;74.00;101179.50;7390762;19;20043;-54
2023/03/12 04:49:24;;;;;;;8.80;3.92;;;;;;;-0.41;74.21;101177.59;7389602;19;20003;-54
2023/03/12 04:51:49;;;;;;;9.43;3.78;;;;;;;-0.38;74.04;101180.97;7391574;19;20348;-57
2023/03/12 04:54:15;;;;;;;9.30;3.90;;;;;;;-0.39;73.89;101174.06;7391042;19;20002;-53
2023/03/12 04:56:40;;;;;;;11.20;3.55;;;;;;;-0.31;73.42;101173.81;7390023;19;20454;-54
2023/03/12 04:59:06;;;;;;;7.90;3.00;;;;;;;-0.20;73.00;101163.06;7389649;19;20006;-56
2023/03/12 05:01:33;;;;;;;8.52;3.35;;;;;;;-0.30;73.13;101162.47;7391186;19;20013;-55
2023/03/12 05:03:59;;;;;;;10.15;3.70;;;;;;;-0.38;73.68;101161.84;7391327;19;19997;-56
2023/03/12 05:06:25;;;;;;;7.85;3.35;;;;;;;-0.57;74.38;101157.19;7390020;19;19999;-55
2023/03/12 05:08:51;;;;;;;9.85;3.15;;;;;;;-0.65;75.05;101150.47;7389894;19;20006;-55
2023/03/12 05:11:18;;;;;;;7.13;3.63;;;;;;;-0.73;75.05;101150.69;7390987;19;20020;-55
2023/03/12 05:13:44;;;;;;;8.30;3.65;;;;;;;-0.50;74.60;101144.81;7392001;19;19999;-55
2023/03/12 05:16:10;;;;;;;8.93;3.05;;;;;;;-0.33;74.05;101139.06;7389840;19;20002;-55
2023/03/12 05:18:35;;;;;;;7.28;3.20;;;;;;;-0.50;74.26;101143.97;7389047;19;20003;-56
2023/03/12 05:21:07;;;;;;;10.77;3.50;;;;;;;-0.62;74.67;101142.56;7391562;19;20024;-56
2023/03/12 05:23:34;;;;;;;9.25;3.60;;;;;;;-0.63;74.69;101136.47;7388650;19;20498;-59
2023/03/12 05:25:59;;;;;;;9.85;3.38;;;;;;;-0.62;74.65;101142.56;7389593;19;20007;-55
2023/03/12 05:28:27;;;;;;;8.88;3.75;;;;;;;-0.48;74.21;101137.78;7391322;19;20469;-54
2023/03/12 05:30:57;;;;;;;13.73;4.72;;;;;;;-0.46;74.14;101128.16;7390943;19;20214;-55
2023/03/12 05:33:23;;;;;;;10.52;4.22;;;;;;;-0.37;73.62;101124.41;7388674;19;20006;-51
2023/03/12 05:35:49;;;;;;;10.10;3.53;;;;;;;-0.25;72.75;101124.00;7392452;19;20058;-54
2023/03/12 05:38:15;;;;;;;8.95;3.95;;;;;;;-0.20;72.39;101119.53;7396960;19;20006;-54
2023/03/12 05:40:40;;;;;;;10.25;3.90;;;;;;;-0.29;72.37;101114.56;7397151;19;19999;-53
2023/03/12 05:43:06;;;;;;;7.43;3.17;;;;;;;-0.25;72.16;101108.34;7398319;19;20040;-54
2023/03/12 05:45:32;;;;;;;10.73;3.85;;;;;;;-0.14;71.98;101102.78;7397306;19;20003;-53
2023/03/12 05:47:58;;;;;;;9.10;3.72;;;;;;;-0.04;71.82;101106.81;7396738;19;20027;-54
2023/03/12 05:50:24;;;;;;;10.27;3.70;;;;;;;-0.14;72.00;101108.88;7398205;19;20002;-53
2023/03/12 05:52:50;;;;;;;8.85;4.07;;;;;;;-0.07;71.86;101109.53;7397208;19;20010;-54
2023/03/12 05:55:16;;;;;;;10.00;3.97;;;;;;;-0.07;71.88;101114.75;7396865;19;20002;-54
2023/03/12 05:57:42;;;;;;;13.50;4.00;;;;;;;0.01;71.77;101112.75;7394574;19;20216;-54
2023/03/12 06:00:08;;;;;;;8.40;3.40;;;;;;;0.01;71.82;101111.91;7396989;19;20007;-54
2023/03/12 06:02:34;;;;;;;6.43;3.47;;;;;;;0.11;71.41;101103.72;7396892;19;20511;-53
2023/03/12 06:04:59;;;;;;;7.32;3.42;;;;;;;-0.00;70.95;101110.19;7396938;19;20002;-52
2023/03/12 06:07:25;;;;;;;12.93;3.72;;;;;;;-0.01;71.67;101106.75;7395487;19;20473;-53
2023/03/12 06:09:50;;;;;;;11.88;4.15;;;;;;;-0.02;71.83;101098.94;7396691;19;20333;-50
2023/03/12 06:12:16;;;;;;;11.85;4.20;;;;;;;-0.05;71.65;101105.97;7395444;19;20003;-53
2023/03/12 06:14:41;;;;;;;8.10;3.50;;;;;;;-0.02;71.32;101099.78;7396870;19;20029;-52
2023/03/12 06:17:06;;;;;;;10.15;3.53;;;;;;;-0.03;71.31;101095.47;7394401;19;20006;-52
2023/03/12 06:19:32;;;;;;;8.82;3.83;;;;;;;-0.04;71.09;101096.38;7394188;19;19999;-53
2023/03/12 06:21:57;;;;;;;8.48;3.28;;;;;;;0.05;70.87;101101.28;7394685;19;20001;-53
2023/03/12 06:24:23;;;;;;;7.80;3.28;;;;;;;0.18;69.97;101092.16;7396118;19;19999;-54
2023/03/12 06:26:49;;;;;;;7.88;3.58;;;;;;;0.24;69.57;101088.47;7395174;19;20316;-52
2023/03/12 06:29:14;;;;;;;9.50;4.13;;;;;;;0.29;69.46;101091.81;7396147;19;20362;-54
2023/03/12 06:31:40;;;;;;;8.13;3.72;;;;;;;0.26;69.29;101085.81;7394599;19;19994;-51
2023/03/12 06:34:07;;;;;;;9.35;3.50;;;;;;;0.28;69.00;101078.78;7395692;19;19994;-49
2023/03/12 06:36:33;;;;;;;9.25;3.80;;;;;;;0.18;69.31;101081.72;7394757;19;19995;-53
2023/03/12 06:38:58;;;;;;;10.05;4.10;;;;;;;0.25;69.35;101084.97;7393871;19;20339;-54
2023/03/12 06:41:24;;;;;;;9.68;3.83;;;;;;;0.22;69.29;101073.78;7394096;19;19991;-51
2023/03/12 06:43:50;;;;;;;9.45;3.88;;;;;;;0.38;69.03;101075.78;7395796;19;20018;-53
2023/03/12 06:46:17;;;;;;;9.43;3.60;;;;;;;0.44;68.86;101079.94;7392424;19;20328;-55
2023/03/12 06:48:45;;;;;;;9.95;3.90;;;;;;;0.53;68.50;101069.19;7395686;19;19994;-52
2023/03/12 06:51:12;;;;;;;9.48;3.60;;;;;;;0.64;68.29;101067.03;7395995;19;20002;-54
2023/03/12 06:53:38;;;;;;;9.20;3.85;;;;;;;0.63;68.08;101069.69;7393455;19;20006;-52
2023/03/12 06:56:04;;;;;;;9.07;4.03;;;;;;;0.76;67.38;101073.59;7391628;19;20010;-53
2023/03/12 06:58:30;;;;;;;8.23;3.67;;;;;;;0.71;67.41;101070.31;7394739;19;20058;-52
2023/03/12 07:00:56;;;;;;;9.70;4.25;;;;;;;0.80;67.39;101069.09;7394882;19;20003;-51
2023/03/12 07:03:21;;;;;;;10.05;3.95;;;;;;;0.79;67.12;101068.25;7395280;19;20017;-53
2023/03/12 07:05:48;;;;;;;11.60;3.65;;;;;;;0.78;66.95;101071.75;7391474;19;19995;-53
2023/03/12 07:08:15;;;;;;;7.65;3.65;;;;;;;0.75;67.23;101071.91;7395762;19;20002;-53
2023/03/12 07:10:40;;;;;;;10.38;4.72;;;;;;;0.71;66.98;101079.88;7394452;19;20479;-53
2023/03/12 07:13:06;;;;;;;8.77;3.80;;;;;;;0.71;67.35;101074.66;7394058;19;20002;-53
2023/03/12 07:15:32;;;;;;;7.72;4.13;;;;;;;0.85;66.60;101073.25;7393567;19;19991;-54
2023/03/12 07:18:05;;;;;;;10.13;4.03;;;;;;;0.96;66.61;101062.41;7391159;19;20010;-50
2023/03/12 07:20:32;;;;;;;12.40;4.33;;;;;;;1.07;66.06;101068.06;7394278;19;19999;-52
2023/03/12 07:22:58;;;;;;;10.95;4.30;;;;;;;1.31;65.01;101070.66;7394732;19;20006;-53
2023/03/12 07:25:24;;;;;;;8.27;4.13;;;;;;;1.46;64.50;101058.75;7392211;19;20002;-54
2023/03/12 07:27:49;;;;;;;8.77;4.40;;;;;;;1.55;63.94;101054.03;7394141;19;19990;-53
2023/03/12 07:30:15;;;;;;;11.85;4.35;;;;;;;1.63;63.49;101040.63;7395188;19;20002;-54
2023/03/12 07:32:41;;;;;;;9.57;4.28;;;;;;;1.66;63.60;101043.09;7394279;19;20369;-53
2023/03/12 07:35:06;;;;;;;8.57;4.05;;;;;;;1.62;63.67;101039.75;7392513;19;20003;-52
2023/03/12 07:37:32;;;;;;;10.07;4.90;;;;;;;1.63;63.62;101043.25;7391933;19;20006;-53
2023/03/12 07:39:57;;;;;;;9.93;4.40;;;;;;;1.56;63.67;101044.41;7391841;19;20074;-52
2023/03/12 07:42:23;;;;;;;10.68;4.20;;;;;;;1.51;63.68;101039.34;7393745;19;20002;-54
2023/03/12 07:44:48;;;;;;;9.35;3.85;;;;;;;1.32;63.57;101049.69;7392826;19;20481;-51
2023/03/12 07:47:14;;;;;;;7.63;4.00;;;;;;;1.44;63.61;101053.59;7391925;19;19999;-53
2023/03/12 07:49:40;;;;;;;12.88;4.03;;;;;;;1.45;63.88;101057.06;7391626;19;20353;-54
2023/03/12 07:52:10;;;;;;;10.73;4.30;;;;;;;1.55;63.87;101053.13;7394123;19;20013;-54
2023/03/12 07:54:37;;;;;;;8.40;4.47;;;;;;;1.67;63.38;101056.16;7391170;19;20006;-53
2023/03/12 07:57:03;;;;;;;17.45;8.65;;;;;;;1.69;63.42;101057.84;7391056;19;20471;-51
2023/03/12 07:59:28;;;;;;;11.45;5.95;;;;;;;1.76;63.21;101059.31;7391168;19;20073;-53
2023/03/12 08:01:54;;;;;;;25.10;13.68;;;;;;;1.79;62.82;101057.41;7393499;19;19995;-52
2023/03/12 08:04:20;;;;;;;25.05;12.00;;;;;;;1.74;63.08;101066.34;7392506;19;20020;-54
2023/03/12 08:06:45;;;;;;;38.90;24.05;;;;;;;1.72;63.23;101061.19;7391488;19;20006;-50
2023/03/12 08:09:11;;;;;;;29.90;18.73;;;;;;;1.81;62.80;101054.72;7393785;19;20003;-54
2023/03/12 08:11:36;;;;;;;13.77;6.78;;;;;;;1.84;62.36;101051.97;7391046;19;20014;-52
2023/03/12 08:14:03;;;;;;;11.18;5.45;;;;;;;1.83;62.36;101048.50;7392981;19;20052;-52
2023/03/12 08:16:29;;;;;;;14.07;8.95;;;;;;;1.89;62.16;101052.63;7391561;19;20003;-54
2023/03/12 08:18:54;;;;;;;18.00;10.07;;;;;;;1.90;62.44;101039.50;7391337;19;20517;-57
2023/03/12 08:21:20;;;;;;;18.45;9.43;;;;;;;1.99;62.03;101043.47;7392613;19;20014;-57
2023/03/12 08:23:52;;;;;;;12.13;5.93;;;;;;;2.02;62.02;101039.91;7393061;19;19991;-58
2023/03/12 08:26:18;;;;;;;10.98;5.53;;;;;;;2.09;61.40;101026.47;7389447;19;20038;-55
2023/03/12 08:28:43;;;;;;;11.30;5.18;;;;;;;2.17;61.29;101036.63;7393198;19;20062;-53
2023/03/12 08:31:09;;;;;;;10.68;5.20;;;;;;;2.12;61.56;101028.97;7390130;19;20028;-54
2023/03/12 08:33:36;;;;;;;11.07;5.40;;;;;;;2.26;61.26;101030.97;7391791;19;20005;-56
2023/03/12 08:36:01;;;;;;;10.65;5.22;;;;;;;2.25;60.92;101024.03;7390762;19;20328;-55
2023/03/12 08:38:27;;;;;;;17.80;5.65;;;;;;;2.14;61.24;101021.88;7391692;19;20466;-57
2023/03/12 08:40:59;;;;;;;8.90;4.65;;;;;;;2.29;60.49;101019.53;7392823;19;20022;-55
2023/03/12 08:43:32;;;;;;;10.80;5.53;;;;;;;2.42;60.32;101025.06;7392111;19;20006;-54
2023/03/12 08:45:59;;;;;;;8.27;4.35;;;;;;;2.47;59.98;101023.97;7390779;19;20014;-55
2023/03/12 08:48:26;;;;;;;10.93;4.30;;;;;;;2.51;60.06;101030.78;7390025;19;20001;-51
2023/03/12 08:50:56;;;;;;;9.05;4.40;;;;;;;2.68;58.71;101021.31;7392378;19;20006;-55
2023/03/12 08:53:23;;;;;;;10.95;4.95;;;;;;;2.73;58.89;101014.06;7390958;19;20314;-52
2023/03/12 08:55:54;;;;;;;12.10;4.50;;;;;;;2.80;58.32;101005.84;7390278;19;20060;-53
2023/03/12 08:58:20;;;;;;;8.88;3.88;;;;;;;2.94;57.64;100996.50;7389024;19;19995;-51
2023/03/12 09:00:46;;;;;;;10.05;4.55;;;;;;;3.06;57.46;101001.19;7389768;19;19998;-51
2023/03/12 09:03:13;;;;;;;9.23;4.32;;;;;;;2.93;57.48;100995.66;7391889;19;20580;-53
2023/03/12 09:05:43;;;;;;;12.05;4.28;;;;;;;2.79;57.91;100998.06;7388245;19;19999;-53
2023/03/12 09:08:10;;;;;;;10.38;4.70;;;;;;;2.53;58.36;100994.84;7389501;19;20066;-51
2023/03/12 09:10:36;;;;;;;9.70;3.95;;;;;;;2.32;58.36;100993.19;7395966;19;20003;-50
2023/03/12 09:13:03;;;;;;;10.98;4.38;;;;;;;2.31;58.76;100987.09;7396390;19;20019;-52
2023/03/12 09:15:28;;;;;;;8.90;3.97;;;;;;;2.50;58.47;100981.88;7398148;19;19991;-53
2023/03/12 09:17:54;;;;;;;11.35;4.50;;;;;;;2.69;58.13;100971.38;7396419;19;20011;-54
2023/03/12 09:20:20;;;;;;;11.35;4.53;;;;;;;2.99;57.06;100968.25;7397151;19;19994;-51
2023/03/12 09:22:47;;;;;;;8.93;4.03;;;;;;;3.14;56.76;100963.13;7398027;19;20006;-53
2023/03/12 09:25:12;;;;;;;10.18;4.38;;;;;;;3.20;56.93;100948.88;7398706;19;20123;-53
2023/03/12 09:27:40;;;;;;;11.95;4.45;;;;;;;3.24;56.68;100946.97;7393408;19;20002;-54
2023/03/12 09:30:08;;;;;;;10.20;4.45;;;;;;;3.04;56.83;100954.03;7396325;19;20014;-53
2023/03/12 09:32:34;;;;;;;9.45;4.30;;;;;;;3.20;56.64;100940.16;7397817;19;20006;-54
2023/03/12 09:34:59;;;;;;;9.23;4.15;;;;;;;3.33;56.32;100931.59;7396547;19;20090;-53
2023/03/12 09:37:25;;;;;;;9.23;4.35;;;;;;;3.29;56.72;100929.19;7395408;19;20007;-52
2023/03/12 09:39:51;;;;;;;10.30;4.65;;;;;;;3.43;56.31;100913.63;7393296;19;20010;-49
2023/03/12 09:42:24;;;;;;;10.27;4.35;;;;;;;3.48;55.67;100914.22;7397586;19;20386;-54
2023/03/12 09:44:53;;;;;;;11.48;4.13;;;;;;;3.54;55.65;100913.94;7395345;19;20016;-51
2023/03/12 09:47:32;;;;;;;8.15;4.00;;;;;;;3.52;55.12;100920.19;7393213;19;20317;-49
2023/03/12 09:50:22;;;;;;;11.57;4.63;;;;;;;3.60;54.22;100910.13;7395728;19;20380;-47
2023/03/12 09:52:57;;;;;;;7.95;4.10;;;;;;;3.53;55.26;100903.50;7396412;19;20094;-52
2023/03/12 09:55:24;;;;;;;8.45;3.90;;;;;;;3.77;55.59;100912.78;7396665;19;20019;-53
2023/03/12 09:57:51;;;;;;;10.27;4.20;;;;;;;3.68;55.32;100905.34;7397009;19;19998;-53
2023/03/12 10:00:22;;;;;;;13.25;4.15;;;;;;;3.72;55.10;100906.03;7397736;19;20018;-48
2023/03/12 10:03:34;;;;;;;10.25;4.28;;;;;;;3.75;54.30;100896.22;7396962;19;20328;-50
2023/03/12 10:06:09;;;;;;;11.75;4.30;;;;;;;3.89;55.31;100890.25;7391519;19;20007;-52
2023/03/12 10:08:55;;;;;;;12.90;4.22;;;;;;;3.83;55.18;100893.19;7397094;19;20078;-52
2023/03/12 10:12:00;;;;;;;8.85;3.92;;;;;;;3.87;54.12;100892.94;7398030;19;20007;-51
2023/03/12 10:14:47;;;;;;;8.70;3.63;;;;;;;3.79;54.76;100891.66;7396506;19;20009;-52
2023/03/12 10:17:38;;;;;;;10.35;3.95;;;;;;;3.78;54.32;100875.03;7394532;19;20038;-54
2023/03/12 10:20:06;;;;;;;7.80;3.53;;;;;;;3.63;54.97;100857.44;7396198;19;20023;-55
2023/03/12 10:22:43;;;;;;;9.10;4.03;;;;;;;3.63;55.20;100860.91;7395753;19;20342;-54
2023/03/12 10:25:12;;;;;;;8.95;3.85;;;;;;;3.48;55.49;100845.09;7393972;19;20017;-55
2023/03/12 10:27:39;;;;;;;9.57;3.55;;;;;;;3.73;55.20;100837.66;7391631;19;19998;-52
2023/03/12 10:30:23;;;;;;;10.73;3.85;;;;;;;3.84;54.09;100827.44;7396571;19;20023;-55
2023/03/12 10:32:58;;;;;;;11.85;4.05;;;;;;;4.02;54.35;100815.09;7397083;19;20003;-54
2023/03/12 10:35:29;;;;;;;7.03;3.30;;;;;;;4.13;54.22;100816.31;7396381;19;20158;-56
2023/03/12 10:38:03;;;;;;;6.63;3.30;;;;;;;4.37;53.36;100808.84;7393842;19;20002;-56
2023/03/12 10:40:30;;;;;;;;;;;;;;;4.52;52.70;100808.00;7395035;19;20002;-55
2023/03/12 10:42:56;;;;;;;9.82;3.30;;;;;;;4.50;53.35;100802.00;7393952;19;20254;-54
2023/03/12 10:45:37;;;;;;;12.90;3.53;;;;;;;4.54;53.07;100798.25;7396134;19;19998;-53
2023/03/12 10:48:08;;;;;;;10.00;3.63;;;;;;;4.27;53.61;100790.97;7396279;19;20002;-55
2023/03/12 10:50:39;;;;;;;11.50;3.72;;;;;;;4.40;53.94;100792.91;7394611;19;20014;-55
2023/03/12 10:53:27;;;;;;;8.30;3.20;;;;;;;4.41;53.93;100797.22;7393539;19;20032;-55
2023/03/12 10:56:09;;;;;;;7.80;3.25;;;;;;;4.04;54.25;100815.03;7394646;19;20002;-56
2023/03/12 10:58:43;;;;;;;7.90;3.08;;;;;;;3.96;55.04;100818.09;7394989;19;19990;-55
2023/03/12 11:01:18;;;;;;;11.70;3.63;;;;;;;3.99;54.72;100803.91;7394895;19;19995;-54
2023/03/12 11:03:44;;;;;;;6.47;2.72;;;;;;;4.10;55.12;100798.91;7396965;19;20002;-55
2023/03/12 11:06:24;;;;;;;8.70;3.38;;;;;;;4.02;54.97;100801.97;7395449;19;19994;-54
2023/03/12 11:09:17;;;;;;;8.40;3.20;;;;;;;3.97;54.89;100797.91;7395227;19;20006;-54
2023/03/12 11:11:47;;;;;;;10.02;3.00;;;;;;;3.96;55.76;100809.34;7396762;19;20003;-53
2023/03/12 11:14:27;;;;;;;9.82;3.10;;;;;;;3.63;56.36;100803.13;7395924;19;20002;-54
2023/03/12 11:16:54;;;;;;;7.88;2.75;;;;;;;3.42;57.47;100796.38;7395053;19;19995;-53
2023/03/12 11:19:33;;;;;;;12.68;3.13;;;;;;;3.48;57.68;100803.09;7395351;19;20066;-54
2023/03/12 11:22:00;;;;;;;8.70;2.88;;;;;;;3.55;57.92;100810.56;7396331;19;20006;-53
2023/03/12 11:24:26;;;;;;;8.77;2.95;;;;;;;3.46;58.69;100815.47;7396137;19;20001;-54
2023/03/12 11:27:24;;;;;;;9.90;3.00;;;;;;;3.18;60.43;100808.97;7394205;19;19998;-53
2023/03/12 11:29:50;;;;;;;5.85;2.97;;;;;;;3.27;60.24;100808.50;7397296;19;20016;-52
2023/03/12 11:32:22;;;;;;;9.55;3.42;;;;;;;3.36;60.88;100792.28;7394050;19;20838;-50